sensor_id;sensor_type;location;lat;lon;timestamp;pressure;altitude;pressure_sealevel;temperature;humidity
56831;BME280;42713;42.676;23.352;2023-09-30T00:01:17;95216.59;;;18.79;48.81
56831;BME280;42713;42.676;23.352;2023-09-30T00:03:44;95204.41;;;18.78;49.22
56831;BME280;42713;42.676;23.352;2023-09-30T00:06:10;95212.06;;;18.80;49.39
56831;BME280;42713;42.676;23.352;2023-09-30T00:08:35;95207.06;;;18.78;49.02
56831;BME280;42713;42.676;23.352;2023-09-30T00:11:01;95206.25;;;18.78;49.08
56831;BME280;42713;42.676;23.352;2023-09-30T00:13:27;95197.81;;;18.76;48.89
56831;BME280;42713;42.676;23.352;2023-09-30T00:15:53;95208.41;;;18.76;48.88
56831;BME280;42713;42.676;23.352;2023-09-30T00:18:18;95203.09;;;18.76;48.71
56831;BME280;42713;42.676;23.352;2023-09-30T00:20:45;95202.59;;;18.74;48.69
56831;BME280;42713;42.676;23.352;2023-09-30T00:23:10;95194.63;;;18.74;48.91
56831;BME280;42713;42.676;23.352;2023-09-30T00:25:36;95198.34;;;18.73;49.17
56831;BME280;42713;42.676;23.352;2023-09-30T00:28:01;95201.00;;;18.73;49.45
56831;BME280;42713;42.676;23.352;2023-09-30T00:30:27;95195.97;;;18.71;49.52
56831;BME280;42713;42.676;23.352;2023-09-30T00:32:53;95193.03;;;18.73;49.94
56831;BME280;42713;42.676;23.352;2023-09-30T00:35:18;95198.06;;;18.74;50.15
56831;BME280;42713;42.676;23.352;2023-09-30T00:37:44;95187.75;;;18.73;50.39
56831;BME280;42713;42.676;23.352;2023-09-30T00:40:10;95188.53;;;18.73;50.42
56831;BME280;42713;42.676;23.352;2023-09-30T00:42:41;95195.16;;;18.76;50.42
56831;BME280;42713;42.676;23.352;2023-09-30T00:45:07;95197.00;;;18.75;50.22
56831;BME280;42713;42.676;23.352;2023-09-30T00:47:37;95195.91;;;18.76;50.05
56831;BME280;42713;42.676;23.352;2023-09-30T00:50:04;95188.25;;;18.75;50.64
56831;BME280;42713;42.676;23.352;2023-09-30T00:52:33;95187.75;;;18.73;50.91
56831;BME280;42713;42.676;23.352;2023-09-30T00:55:00;95189.88;;;18.71;50.90
56831;BME280;42713;42.676;23.352;2023-09-30T00:57:25;95189.88;;;18.71;50.75
56831;BME280;42713;42.676;23.352;2023-09-30T00:59:53;95193.59;;;18.70;51.03
56831;BME280;42713;42.676;23.352;2023-09-30T01:02:19;95191.50;;;18.66;51.27
56831;BME280;42713;42.676;23.352;2023-09-30T01:04:45;95187.28;;;18.65;51.27
56831;BME280;42713;42.676;23.352;2023-09-30T01:07:11;95183.31;;;18.63;51.25
56831;BME280;42713;42.676;23.352;2023-09-30T01:09:37;95184.91;;;18.64;51.05
56831;BME280;42713;42.676;23.352;2023-09-30T01:12:04;95180.19;;;18.61;50.64
56831;BME280;42713;42.676;23.352;2023-09-30T01:14:31;95189.47;;;18.58;51.50
56831;BME280;42713;42.676;23.352;2023-09-30T01:16:57;95183.69;;;18.56;51.61
56831;BME280;42713;42.676;23.352;2023-09-30T01:19:23;95183.91;;;18.60;51.94
56831;BME280;42713;42.676;23.352;2023-09-30T01:21:56;95185.22;;;18.57;52.04
56831;BME280;42713;42.676;23.352;2023-09-30T01:24:27;95183.38;;;18.58;52.26
56831;BME280;42713;42.676;23.352;2023-09-30T01:26:52;95179.94;;;18.57;52.52
56831;BME280;42713;42.676;23.352;2023-09-30T01:29:19;95189.75;;;18.57;52.24
56831;BME280;42713;42.676;23.352;2023-09-30T01:31:44;95188.19;;;18.56;52.56
56831;BME280;42713;42.676;23.352;2023-09-30T01:34:14;95195.63;;;18.54;52.78
56831;BME280;42713;42.676;23.352;2023-09-30T01:36:41;95190.09;;;18.50;52.78
56831;BME280;42713;42.676;23.352;2023-09-30T01:39:09;95188.78;;;18.47;52.83
56831;BME280;42713;42.676;23.352;2023-09-30T01:41:37;95187.22;;;18.46;53.00
56831;BME280;42713;42.676;23.352;2023-09-30T01:44:02;95184.03;;;18.44;53.14
56831;BME280;42713;42.676;23.352;2023-09-30T01:46:28;95181.38;;;18.44;53.30
56831;BME280;42713;42.676;23.352;2023-09-30T01:48:54;95184.34;;;18.43;53.28
56831;BME280;42713;42.676;23.352;2023-09-30T01:51:19;95182.22;;;18.40;53.59
56831;BME280;42713;42.676;23.352;2023-09-30T01:53:47;95177.72;;;18.40;54.00
56831;BME280;42713;42.676;23.352;2023-09-30T01:56:13;95184.38;;;18.38;53.69
56831;BME280;42713;42.676;23.352;2023-09-30T01:58:38;95178.84;;;18.34;53.51
56831;BME280;42713;42.676;23.352;2023-09-30T02:01:04;95174.59;;;18.33;54.17
56831;BME280;42713;42.676;23.352;2023-09-30T02:03:30;95176.75;;;18.31;53.73
56831;BME280;42713;42.676;23.352;2023-09-30T02:05:58;95178.66;;;18.25;54.05
56831;BME280;42713;42.676;23.352;2023-09-30T02:08:24;95184.22;;;18.24;54.49
56831;BME280;42713;42.676;23.352;2023-09-30T02:10:50;95173.16;;;18.16;54.13
56831;BME280;42713;42.676;23.352;2023-09-30T02:13:19;95178.53;;;18.11;54.71
56831;BME280;42713;42.676;23.352;2023-09-30T02:15:45;95176.44;;;18.08;54.69
56831;BME280;42713;42.676;23.352;2023-09-30T02:18:11;95169.81;;;18.06;54.71
56831;BME280;42713;42.676;23.352;2023-09-30T02:20:36;95181.50;;;18.04;54.74
56831;BME280;42713;42.676;23.352;2023-09-30T02:23:12;95170.91;;;17.99;54.80
56831;BME280;42713;42.676;23.352;2023-09-30T02:25:38;95178.38;;;17.97;54.76
56831;BME280;42713;42.676;23.352;2023-09-30T02:28:05;95180.25;;;17.92;55.15
56831;BME280;42713;42.676;23.352;2023-09-30T02:30:31;95174.69;;;17.88;54.89
56831;BME280;42713;42.676;23.352;2023-09-30T02:32:57;95169.72;;;17.81;55.02
56831;BME280;42713;42.676;23.352;2023-09-30T02:35:23;95177.19;;;17.74;55.49
56831;BME280;42713;42.676;23.352;2023-09-30T02:37:50;95171.13;;;17.68;55.39
56831;BME280;42713;42.676;23.352;2023-09-30T02:40:17;95179.41;;;17.62;55.03
56831;BME280;42713;42.676;23.352;2023-09-30T02:42:43;95174.94;;;17.52;55.62
56831;BME280;42713;42.676;23.352;2023-09-30T02:45:09;95182.13;;;17.46;55.35
56831;BME280;42713;42.676;23.352;2023-09-30T02:47:36;95180.59;;;17.40;55.88
56831;BME280;42713;42.676;23.352;2023-09-30T02:50:02;95178.53;;;17.32;56.59
56831;BME280;42713;42.676;23.352;2023-09-30T02:52:30;95176.72;;;17.22;56.50
56831;BME280;42713;42.676;23.352;2023-09-30T02:54:55;95178.59;;;17.16;56.44
56831;BME280;42713;42.676;23.352;2023-09-30T02:57:23;95167.75;;;17.13;56.48
56831;BME280;42713;42.676;23.352;2023-09-30T02:59:48;95178.91;;;17.09;56.56
56831;BME280;42713;42.676;23.352;2023-09-30T03:02:14;95178.91;;;17.04;56.41
56831;BME280;42713;42.676;23.352;2023-09-30T03:04:40;95170.75;;;16.95;56.30
56831;BME280;42713;42.676;23.352;2023-09-30T03:07:08;95182.41;;;16.94;55.54
56831;BME280;42713;42.676;23.352;2023-09-30T03:09:34;95175.75;;;16.92;55.33
56831;BME280;42713;42.676;23.352;2023-09-30T03:12:02;95175.75;;;16.92;54.02
56831;BME280;42713;42.676;23.352;2023-09-30T03:14:30;95176.84;;;16.96;55.22
56831;BME280;42713;42.676;23.352;2023-09-30T03:16:57;95180.81;;;16.93;54.87
56831;BME280;42713;42.676;23.352;2023-09-30T03:19:23;95180.53;;;16.90;55.49
56831;BME280;42713;42.676;23.352;2023-09-30T03:21:49;95179.50;;;16.86;54.32
56831;BME280;42713;42.676;23.352;2023-09-30T03:24:15;95186.38;;;16.81;55.92
56831;BME280;42713;42.676;23.352;2023-09-30T03:26:40;95184.78;;;16.80;55.40
56831;BME280;42713;42.676;23.352;2023-09-30T03:29:07;95184.53;;;16.77;55.38
56831;BME280;42713;42.676;23.352;2023-09-30T03:31:34;95181.66;;;16.73;54.98
56831;BME280;42713;42.676;23.352;2023-09-30T03:34:00;95177.16;;;16.74;54.73
56831;BME280;42713;42.676;23.352;2023-09-30T03:36:26;95176.09;;;16.70;54.03
56831;BME280;42713;42.676;23.352;2023-09-30T03:38:52;95176.91;;;16.70;54.68
56831;BME280;42713;42.676;23.352;2023-09-30T03:41:20;95176.38;;;16.68;54.12
56831;BME280;42713;42.676;23.352;2023-09-30T03:43:46;95170.28;;;16.68;54.06
56831;BME280;42713;42.676;23.352;2023-09-30T03:46:12;95181.69;;;16.68;53.08
56831;BME280;42713;42.676;23.352;2023-09-30T03:48:38;95177.97;;;16.69;54.39
56831;BME280;42713;42.676;23.352;2023-09-30T03:51:12;95174.81;;;16.67;53.68
56831;BME280;42713;42.676;23.352;2023-09-30T03:53:41;95171.09;;;16.68;54.32
56831;BME280;42713;42.676;23.352;2023-09-30T03:56:07;95181.69;;;16.68;54.61
56831;BME280;42713;42.676;23.352;2023-09-30T03:58:33;95182.19;;;16.65;55.06
56831;BME280;42713;42.676;23.352;2023-09-30T04:00:59;95177.97;;;16.64;55.02
56831;BME280;42713;42.676;23.352;2023-09-30T04:03:26;95179.84;;;16.63;55.38
56831;BME280;42713;42.676;23.352;2023-09-30T04:05:53;95183.00;;;16.60;56.09
56831;BME280;42713;42.676;23.352;2023-09-30T04:08:18;95184.09;;;16.54;54.87
56831;BME280;42713;42.676;23.352;2023-09-30T04:10:44;95183.03;;;16.50;55.38
56831;BME280;42713;42.676;23.352;2023-09-30T04:13:10;95178.03;;;16.48;55.06
56831;BME280;42713;42.676;23.352;2023-09-30T04:15:37;95189.13;;;16.45;55.73
56831;BME280;42713;42.676;23.352;2023-09-30T04:18:03;95188.06;;;16.41;55.67
56831;BME280;42713;42.676;23.352;2023-09-30T04:20:30;95184.38;;;16.37;56.07
56831;BME280;42713;42.676;23.352;2023-09-30T04:22:56;95192.84;;;16.34;56.58
56831;BME280;42713;42.676;23.352;2023-09-30T04:25:23;95192.31;;;16.27;56.07
56831;BME280;42713;42.676;23.352;2023-09-30T04:27:51;95196.81;;;16.21;56.93
56831;BME280;42713;42.676;23.352;2023-09-30T04:30:18;95200.28;;;16.16;56.08
56831;BME280;42713;42.676;23.352;2023-09-30T04:32:43;95200.53;;;16.15;56.53
56831;BME280;42713;42.676;23.352;2023-09-30T04:35:10;95203.44;;;16.13;57.09
56831;BME280;42713;42.676;23.352;2023-09-30T04:37:37;95197.34;;;16.08;56.95
56831;BME280;42713;42.676;23.352;2023-09-30T04:40:04;95202.38;;;16.04;56.85
56831;BME280;42713;42.676;23.352;2023-09-30T04:42:34;95201.31;;;15.95;57.66
56831;BME280;42713;42.676;23.352;2023-09-30T04:45:04;95203.16;;;15.89;57.58
56831;BME280;42713;42.676;23.352;2023-09-30T04:47:33;95211.38;;;15.87;57.59
56831;BME280;42713;42.676;23.352;2023-09-30T04:49:59;95216.59;;;15.82;57.33
56831;BME280;42713;42.676;23.352;2023-09-30T04:52:24;95212.09;;;15.78;57.64
56831;BME280;42713;42.676;23.352;2023-09-30T04:54:53;95217.66;;;15.71;57.70
56831;BME280;42713;42.676;23.352;2023-09-30T04:57:18;95216.88;;;15.65;57.49
56831;BME280;42713;42.676;23.352;2023-09-30T04:59:45;95219.50;;;15.65;57.88
56831;BME280;42713;42.676;23.352;2023-09-30T05:02:12;95216.06;;;15.60;57.56
56831;BME280;42713;42.676;23.352;2023-09-30T05:04:40;95220.56;;;15.64;56.83
56831;BME280;42713;42.676;23.352;2023-09-30T05:07:06;95223.72;;;15.66;55.72
56831;BME280;42713;42.676;23.352;2023-09-30T05:09:32;95222.16;;;15.65;55.86
56831;BME280;42713;42.676;23.352;2023-09-30T05:11:58;95226.88;;;15.63;55.95
56831;BME280;42713;42.676;23.352;2023-09-30T05:14:23;95225.56;;;15.61;56.20
56831;BME280;42713;42.676;23.352;2023-09-30T05:16:49;95227.41;;;15.60;56.12
56831;BME280;42713;42.676;23.352;2023-09-30T05:19:14;95228.22;;;15.61;56.68
56831;BME280;42713;42.676;23.352;2023-09-30T05:21:39;95234.00;;;15.57;56.19
56831;BME280;42713;42.676;23.352;2023-09-30T05:24:05;95227.13;;;15.56;56.24
56831;BME280;42713;42.676;23.352;2023-09-30T05:26:31;95222.38;;;15.59;56.17
56831;BME280;42713;42.676;23.352;2023-09-30T05:28:57;95226.38;;;15.66;55.83
56831;BME280;42713;42.676;23.352;2023-09-30T05:31:24;95229.28;;;15.70;55.95
56831;BME280;42713;42.676;23.352;2023-09-30T05:33:50;95228.75;;;15.73;56.16
56831;BME280;42713;42.676;23.352;2023-09-30T05:36:16;95235.09;;;15.77;56.28
56831;BME280;42713;42.676;23.352;2023-09-30T05:38:41;95235.63;;;15.79;56.94
56831;BME280;42713;42.676;23.352;2023-09-30T05:41:08;95235.09;;;15.77;56.44
56831;BME280;42713;42.676;23.352;2023-09-30T05:43:33;95242.25;;;15.77;56.07
56831;BME280;42713;42.676;23.352;2023-09-30T05:45:59;95240.09;;;15.79;56.86
56831;BME280;42713;42.676;23.352;2023-09-30T05:48:24;95245.94;;;15.81;56.10
56831;BME280;42713;42.676;23.352;2023-09-30T05:50:52;95247.50;;;15.82;55.87
56831;BME280;42713;42.676;23.352;2023-09-30T05:53:18;95244.38;;;15.85;56.09
56831;BME280;42713;42.676;23.352;2023-09-30T05:55:43;95241.47;;;15.86;56.32
56831;BME280;42713;42.676;23.352;2023-09-30T05:58:13;95233.56;;;15.86;56.07
56831;BME280;42713;42.676;23.352;2023-09-30T06:00:39;95247.28;;;15.94;55.76
56831;BME280;42713;42.676;23.352;2023-09-30T06:03:07;95243.34;;;15.96;56.12
56831;BME280;42713;42.676;23.352;2023-09-30T06:05:33;95248.88;;;16.05;55.88
56831;BME280;42713;42.676;23.352;2023-09-30T06:08:03;95246.00;;;16.12;55.63
56831;BME280;42713;42.676;23.352;2023-09-30T06:10:29;95251.53;;;16.21;55.30
56831;BME280;42713;42.676;23.352;2023-09-30T06:12:56;95252.06;;;16.28;55.64
56831;BME280;42713;42.676;23.352;2023-09-30T06:15:23;95252.31;;;16.31;55.37
56831;BME280;42713;42.676;23.352;2023-09-30T06:17:55;95262.88;;;16.37;55.33
56831;BME280;42713;42.676;23.352;2023-09-30T06:20:21;95253.91;;;16.38;55.33
56831;BME280;42713;42.676;23.352;2023-09-30T06:22:56;95259.47;;;16.31;55.97
56831;BME280;42713;42.676;23.352;2023-09-30T06:25:22;95271.38;;;16.33;55.31
56831;BME280;42713;42.676;23.352;2023-09-30T06:27:54;95264.47;;;16.38;55.72
56831;BME280;42713;42.676;23.352;2023-09-30T06:30:20;95263.69;;;16.47;56.02
56831;BME280;42713;42.676;23.352;2023-09-30T06:32:46;95271.06;;;16.61;55.43
56831;BME280;42713;42.676;23.352;2023-09-30T06:35:12;95267.09;;;16.74;54.58
56831;BME280;42713;42.676;23.352;2023-09-30T06:37:41;95268.13;;;16.83;55.66
56831;BME280;42713;42.676;23.352;2023-09-30T06:40:09;95264.44;;;16.94;59.12
56831;BME280;42713;42.676;23.352;2023-09-30T06:42:37;95265.75;;;16.97;53.98
56831;BME280;42713;42.676;23.352;2023-09-30T06:45:03;95261.22;;;16.92;53.15
56831;BME280;42713;42.676;23.352;2023-09-30T06:47:36;95265.22;;;16.95;53.77
56831;BME280;42713;42.676;23.352;2023-09-30T06:50:02;95269.72;;;16.94;56.71
56831;BME280;42713;42.676;23.352;2023-09-30T06:52:36;95267.59;;;16.96;59.73
56831;BME280;42713;42.676;23.352;2023-09-30T06:55:02;95268.13;;;16.99;56.58
56831;BME280;42713;42.676;23.352;2023-09-30T06:57:34;95267.84;;;17.00;57.75
56831;BME280;42713;42.676;23.352;2023-09-30T07:00:01;95274.97;;;17.05;55.46
56831;BME280;42713;42.676;23.352;2023-09-30T07:02:26;95277.63;;;17.05;56.42
56831;BME280;42713;42.676;23.352;2023-09-30T07:04:52;95276.31;;;17.07;56.52
56831;BME280;42713;42.676;23.352;2023-09-30T07:07:18;95287.66;;;17.08;53.94
56831;BME280;42713;42.676;23.352;2023-09-30T07:09:44;95276.31;;;17.07;53.56
56831;BME280;42713;42.676;23.352;2023-09-30T07:12:09;95282.13;;;17.09;57.01
56831;BME280;42713;42.676;23.352;2023-09-30T07:14:35;95289.25;;;17.14;56.01
56831;BME280;42713;42.676;23.352;2023-09-30T07:17:00;95283.66;;;17.21;53.26
56831;BME280;42713;42.676;23.352;2023-09-30T07:19:26;95277.56;;;17.20;57.42
56831;BME280;42713;42.676;23.352;2023-09-30T07:21:51;95280.44;;;17.29;56.39
56831;BME280;42713;42.676;23.352;2023-09-30T07:24:17;95280.16;;;17.36;56.12
56831;BME280;42713;42.676;23.352;2023-09-30T07:26:42;95279.88;;;17.42;54.63
56831;BME280;42713;42.676;23.352;2023-09-30T07:29:09;95284.59;;;17.51;54.16
56831;BME280;42713;42.676;23.352;2023-09-30T07:31:37;95275.56;;;17.57;52.72
56831;BME280;42713;42.676;23.352;2023-09-30T07:34:03;95287.19;;;17.61;55.89
56831;BME280;42713;42.676;23.352;2023-09-30T07:36:28;95282.16;;;17.65;51.83
56831;BME280;42713;42.676;23.352;2023-09-30T07:38:54;95278.41;;;17.71;53.96
56831;BME280;42713;42.676;23.352;2023-09-30T07:41:19;95282.38;;;17.73;55.25
56831;BME280;42713;42.676;23.352;2023-09-30T07:43:45;95278.38;;;17.81;54.76
56831;BME280;42713;42.676;23.352;2023-09-30T07:46:10;95275.94;;;17.85;49.63
56831;BME280;42713;42.676;23.352;2023-09-30T07:48:36;95280.66;;;17.93;55.67
56831;BME280;42713;42.676;23.352;2023-09-30T07:51:01;95283.31;;;17.98;54.43
56831;BME280;42713;42.676;23.352;2023-09-30T07:53:28;95283.81;;;18.06;49.40
56831;BME280;42713;42.676;23.352;2023-09-30T07:55:54;95288.81;;;18.07;55.95
56831;BME280;42713;42.676;23.352;2023-09-30T07:58:20;95281.09;;;18.16;54.08
56831;BME280;42713;42.676;23.352;2023-09-30T08:00:45;95282.56;;;18.27;49.56
56831;BME280;42713;42.676;23.352;2023-09-30T08:03:11;95289.72;;;18.32;55.90
56831;BME280;42713;42.676;23.352;2023-09-30T08:05:37;95284.66;;;18.35;56.91
56831;BME280;42713;42.676;23.352;2023-09-30T08:08:03;95280.59;;;18.43;55.30
56831;BME280;42713;42.676;23.352;2023-09-30T08:10:29;95283.72;;;18.50;55.84
56831;BME280;42713;42.676;23.352;2023-09-30T08:12:57;95292.16;;;18.58;52.99
56831;BME280;42713;42.676;23.352;2023-09-30T08:15:24;95283.88;;;18.64;52.57
56831;BME280;42713;42.676;23.352;2023-09-30T08:17:50;95275.34;;;18.67;50.82
56831;BME280;42713;42.676;23.352;2023-09-30T08:20:16;95282.72;;;18.76;53.78
56831;BME280;42713;42.676;23.352;2023-09-30T08:22:41;95282.94;;;18.79;52.47
56831;BME280;42713;42.676;23.352;2023-09-30T08:25:08;95283.16;;;18.83;51.26
56831;BME280;42713;42.676;23.352;2023-09-30T08:27:34;95281.47;;;18.92;52.62
56831;BME280;42713;42.676;23.352;2023-09-30T08:29:59;95278.00;;;18.97;52.30
56831;BME280;42713;42.676;23.352;2023-09-30T08:32:25;95278.75;;;19.03;50.43
56831;BME280;42713;42.676;23.352;2023-09-30T08:34:50;95281.13;;;19.04;51.68
56831;BME280;42713;42.676;23.352;2023-09-30T08:37:16;95277.09;;;19.07;52.42
56831;BME280;42713;42.676;23.352;2023-09-30T08:39:42;95280.78;;;19.11;52.94
56831;BME280;42713;42.676;23.352;2023-09-30T08:42:09;95274.91;;;19.14;52.26
56831;BME280;42713;42.676;23.352;2023-09-30T08:44:39;95271.03;;;19.25;52.24
56831;BME280;42713;42.676;23.352;2023-09-30T08:47:07;95272.06;;;19.29;50.75
56831;BME280;42713;42.676;23.352;2023-09-30T08:49:37;95273.31;;;19.37;47.88
56831;BME280;42713;42.676;23.352;2023-09-30T08:52:05;95271.66;;;19.41;48.75
56831;BME280;42713;42.676;23.352;2023-09-30T08:54:31;95271.59;;;19.47;48.51
56831;BME280;42713;42.676;23.352;2023-09-30T08:56:57;95266.00;;;19.48;48.02
56831;BME280;42713;42.676;23.352;2023-09-30T08:59:46;95268.59;;;19.53;48.30
56831;BME280;42713;42.676;23.352;2023-09-30T09:02:11;95268.22;;;19.60;47.64
56831;BME280;42713;42.676;23.352;2023-09-30T09:04:37;95266.31;;;19.66;49.25
56831;BME280;42713;42.676;23.352;2023-09-30T09:07:03;95259.91;;;19.67;45.22
56831;BME280;42713;42.676;23.352;2023-09-30T09:09:28;95253.16;;;19.74;46.97
56831;BME280;42713;42.676;23.352;2023-09-30T09:11:54;95256.84;;;19.79;46.33
56831;BME280;42713;42.676;23.352;2023-09-30T09:14:19;95258.41;;;19.80;45.47
56831;BME280;42713;42.676;23.352;2023-09-30T09:17:01;95252.50;;;19.88;45.30
56831;BME280;42713;42.676;23.352;2023-09-30T09:19:26;95241.97;;;19.97;44.15
56831;BME280;42713;42.676;23.352;2023-09-30T09:21:57;95255.69;;;20.04;44.75
56831;BME280;42713;42.676;23.352;2023-09-30T09:24:27;95251.44;;;20.22;46.23
56831;BME280;42713;42.676;23.352;2023-09-30T09:27:03;95250.09;;;20.38;46.83
56831;BME280;42713;42.676;23.352;2023-09-30T09:29:29;95250.31;;;20.42;44.64
56831;BME280;42713;42.676;23.352;2023-09-30T09:32:09;95240.38;;;20.48;44.63
56831;BME280;42713;42.676;23.352;2023-09-30T09:34:35;95246.38;;;20.53;44.24
56831;BME280;42713;42.676;23.352;2023-09-30T09:37:16;95238.84;;;20.61;41.84
56831;BME280;42713;42.676;23.352;2023-09-30T09:39:56;95236.56;;;20.68;42.08
56831;BME280;42713;42.676;23.352;2023-09-30T09:42:27;95233.59;;;20.69;43.17
56831;BME280;42713;42.676;23.352;2023-09-30T09:45:01;95236.22;;;20.75;44.95
56831;BME280;42713;42.676;23.352;2023-09-30T09:47:29;95239.38;;;20.77;43.39
56831;BME280;42713;42.676;23.352;2023-09-30T09:49:57;95228.63;;;20.82;42.95
56831;BME280;42713;42.676;23.352;2023-09-30T09:52:23;95225.56;;;20.89;44.37
56831;BME280;42713;42.676;23.352;2023-09-30T09:54:50;95222.03;;;20.93;41.42
56831;BME280;42713;42.676;23.352;2023-09-30T09:57:17;95225.56;;;21.03;41.16
56831;BME280;42713;42.676;23.352;2023-09-30T09:59:44;95221.22;;;21.07;41.42
56831;BME280;42713;42.676;23.352;2023-09-30T10:02:13;95230.72;;;21.13;42.26
56831;BME280;42713;42.676;23.352;2023-09-30T10:04:44;95218.56;;;21.21;42.17
56831;BME280;42713;42.676;23.352;2023-09-30T10:07:26;95212.34;;;21.25;39.32
56831;BME280;42713;42.676;23.352;2023-09-30T10:09:53;95213.50;;;21.33;40.57
56831;BME280;42713;42.676;23.352;2023-09-30T10:12:19;95201.47;;;21.36;38.86
56831;BME280;42713;42.676;23.352;2023-09-30T10:14:48;95209.03;;;21.42;38.21
56831;BME280;42713;42.676;23.352;2023-09-30T10:17:14;95208.94;;;21.48;38.88
56831;BME280;42713;42.676;23.352;2023-09-30T10:20:05;95196.78;;;21.55;39.59
56831;BME280;42713;42.676;23.352;2023-09-30T10:22:31;95194.03;;;21.60;40.27
56831;BME280;42713;42.676;23.352;2023-09-30T10:24:58;95196.28;;;21.67;36.70
56831;BME280;42713;42.676;23.352;2023-09-30T10:29:57;95187.44;;;21.81;39.73
56831;BME280;42713;42.676;23.352;2023-09-30T10:33:29;95188.28;;;21.90;37.78
56831;BME280;42713;42.676;23.352;2023-09-30T10:40:50;95177.75;;;22.07;35.74
56831;BME280;42713;42.676;23.352;2023-09-30T10:43:29;95183.28;;;22.11;34.20
56831;BME280;42713;42.676;23.352;2023-09-30T10:45:56;95181.56;;;22.15;33.88
56831;BME280;42713;42.676;23.352;2023-09-30T10:50:52;95176.78;;;22.26;34.29
56831;BME280;42713;42.676;23.352;2023-09-30T10:53:18;95173.97;;;22.31;33.74
56831;BME280;42713;42.676;23.352;2023-09-30T10:55:45;95183.31;;;22.43;33.78
56831;BME280;42713;42.676;23.352;2023-09-30T10:58:12;95173.63;;;22.56;35.27
56831;BME280;42713;42.676;23.352;2023-09-30T11:00:38;95175.75;;;22.67;34.40
56831;BME280;42713;42.676;23.352;2023-09-30T11:03:04;95166.66;;;22.77;32.74
56831;BME280;42713;42.676;23.352;2023-09-30T11:05:31;95165.78;;;22.91;32.02
56831;BME280;42713;42.676;23.352;2023-09-30T11:08:01;95162.16;;;23.04;33.57
56831;BME280;42713;42.676;23.352;2023-09-30T11:10:28;95170.56;;;23.20;32.86
56831;BME280;42713;42.676;23.352;2023-09-30T11:12:56;95163.06;;;23.31;31.37
56831;BME280;42713;42.676;23.352;2023-09-30T11:15:23;95165.72;;;23.40;31.54
56831;BME280;42713;42.676;23.352;2023-09-30T11:17:51;95164.94;;;23.48;32.38
56831;BME280;42713;42.676;23.352;2023-09-30T11:20:17;95165.56;;;23.62;33.31
56831;BME280;42713;42.676;23.352;2023-09-30T11:22:47;95155.50;;;23.68;31.44
56831;BME280;42713;42.676;23.352;2023-09-30T11:25:19;95149.84;;;23.78;32.58
56831;BME280;42713;42.676;23.352;2023-09-30T11:27:46;95161.63;;;23.86;31.72
56831;BME280;42713;42.676;23.352;2023-09-30T11:30:12;95152.84;;;23.95;32.15
56831;BME280;42713;42.676;23.352;2023-09-30T11:32:38;95149.53;;;23.98;30.88
56831;BME280;42713;42.676;23.352;2023-09-30T11:35:09;95148.56;;;24.02;30.98
56831;BME280;42713;42.676;23.352;2023-09-30T11:37:35;95151.53;;;24.18;30.43
56831;BME280;42713;42.676;23.352;2023-09-30T11:40:14;95143.16;;;24.29;30.51
56831;BME280;42713;42.676;23.352;2023-09-30T11:42:40;95139.84;;;24.32;31.33
56831;BME280;42713;42.676;23.352;2023-09-30T11:45:22;95138.56;;;24.38;29.97
56831;BME280;42713;42.676;23.352;2023-09-30T11:47:50;95133.50;;;24.45;29.84
56831;BME280;42713;42.676;23.352;2023-09-30T11:50:15;95134.06;;;24.60;30.10
56831;BME280;42713;42.676;23.352;2023-09-30T11:52:44;95131.41;;;24.68;29.99
56831;BME280;42713;42.676;23.352;2023-09-30T11:55:11;95122.84;;;24.75;30.24
56831;BME280;42713;42.676;23.352;2023-09-30T11:57:38;95117.44;;;24.84;29.81
56831;BME280;42713;42.676;23.352;2023-09-30T12:00:04;95123.19;;;24.95;29.52
56831;BME280;42713;42.676;23.352;2023-09-30T12:02:38;95121.72;;;25.06;29.47
56831;BME280;42713;42.676;23.352;2023-09-30T12:05:06;95113.28;;;25.16;29.10
56831;BME280;42713;42.676;23.352;2023-09-30T12:07:40;95112.38;;;25.33;29.46
56831;BME280;42713;42.676;23.352;2023-09-30T12:10:08;95111.22;;;25.43;29.40
56831;BME280;42713;42.676;23.352;2023-09-30T12:12:34;95105.81;;;25.52;28.48
56831;BME280;42713;42.676;23.352;2023-09-30T12:15:00;95095.00;;;25.61;28.30
56831;BME280;42713;42.676;23.352;2023-09-30T12:17:25;95105.75;;;25.61;28.21
56831;BME280;42713;42.676;23.352;2023-09-30T12:19:50;95095.41;;;25.51;28.29
56831;BME280;42713;42.676;23.352;2023-09-30T12:22:16;95090.56;;;25.44;28.56
56831;BME280;42713;42.676;23.352;2023-09-30T12:24:42;95098.53;;;25.53;28.92
56831;BME280;42713;42.676;23.352;2023-09-30T12:27:08;95093.56;;;25.42;28.30
56831;BME280;42713;42.676;23.352;2023-09-30T12:29:34;95086.03;;;25.36;28.20
56831;BME280;42713;42.676;23.352;2023-09-30T12:31:59;95083.75;;;25.46;28.66
56831;BME280;42713;42.676;23.352;2023-09-30T12:34:26;95085.16;;;25.65;28.06
56831;BME280;42713;42.676;23.352;2023-09-30T12:36:53;95079.63;;;25.83;28.50
56831;BME280;42713;42.676;23.352;2023-09-30T12:39:19;95079.13;;;26.02;27.98
56831;BME280;42713;42.676;23.352;2023-09-30T12:41:49;95082.78;;;26.31;28.21
56831;BME280;42713;42.676;23.352;2023-09-30T12:44:15;95080.53;;;26.57;27.51
56831;BME280;42713;42.676;23.352;2023-09-30T12:46:40;95075.53;;;26.81;27.59
56831;BME280;42713;42.676;23.352;2023-09-30T12:49:06;95068.56;;;26.92;27.05
56831;BME280;42713;42.676;23.352;2023-09-30T12:51:33;95070.78;;;27.02;27.73
56831;BME280;42713;42.676;23.352;2023-09-30T12:54:04;95071.75;;;27.23;27.28
56831;BME280;42713;42.676;23.352;2023-09-30T12:56:30;95074.38;;;27.47;26.88
56831;BME280;42713;42.676;23.352;2023-09-30T12:58:57;95061.78;;;27.80;28.11
56831;BME280;42713;42.676;23.352;2023-09-30T13:01:23;95063.78;;;28.11;26.81